createdAt,value
2023-03-06T00:01:32.510Z,4.93
2023-03-06T00:04:04.741Z,4.57
2023-03-06T00:06:36.676Z,4.40
2023-03-06T00:09:09.844Z,4.47
2023-03-06T00:11:41.718Z,5.07
2023-03-06T00:14:13.666Z,4.83
2023-03-06T00:16:45.616Z,4.90
2023-03-06T00:19:17.526Z,5.00
2023-03-06T00:21:49.939Z,5.50
2023-03-06T00:24:22.149Z,5.10
2023-03-06T00:26:54.134Z,5.20
2023-03-06T00:29:26.031Z,5.93
2023-03-06T00:31:58.002Z,6.03
2023-03-06T00:34:29.969Z,5.97
2023-03-06T00:37:01.932Z,6.27
2023-03-06T00:39:33.929Z,6.23
2023-03-06T00:42:06.430Z,6.63
2023-03-06T00:44:38.915Z,6.80
2023-03-06T00:47:11.411Z,7.27
2023-03-06T00:49:46.623Z,6.60
2023-03-06T00:52:18.841Z,6.87
2023-03-06T00:54:51.012Z,6.67
2023-03-06T00:57:23.156Z,7.23
2023-03-06T00:59:56.189Z,6.93
2023-03-06T01:02:28.216Z,7.20
2023-03-06T01:05:00.422Z,7.70
2023-03-06T01:07:36.522Z,8.10
2023-03-06T01:10:09.746Z,7.73
2023-03-06T01:12:41.768Z,8.10
2023-03-06T01:15:14.282Z,8.03
2023-03-06T01:17:46.328Z,8.13
2023-03-06T01:20:19.103Z,8.50
2023-03-06T01:22:51.150Z,8.93
2023-03-06T01:25:25.567Z,8.50
2023-03-06T01:27:57.449Z,8.27
2023-03-06T01:30:29.484Z,7.90
2023-03-06T01:33:01.431Z,8.40
2023-03-06T01:35:33.406Z,8.80
2023-03-06T01:38:05.991Z,8.60
2023-03-06T01:40:38.664Z,8.10
2023-03-06T01:43:29.495Z,7.77
2023-03-06T01:46:26.155Z,7.57
2023-03-06T01:49:18.630Z,7.63
2023-03-06T01:52:00.448Z,7.57
2023-03-06T01:54:40.263Z,7.33
2023-03-06T01:57:19.104Z,7.07
2023-03-06T02:00:13.365Z,7.40
2023-03-06T02:02:55.316Z,7.17
2023-03-06T02:05:27.474Z,7.20
2023-03-06T02:07:59.433Z,7.10
2023-03-06T02:10:31.503Z,7.00
2023-03-06T02:13:04.464Z,7.67
2023-03-06T02:15:36.507Z,7.30
2023-03-06T02:18:08.483Z,7.27
2023-03-06T02:20:53.176Z,6.93
2023-03-06T02:24:32.409Z,7.10
2023-03-06T02:27:06.814Z,6.73
2023-03-06T02:29:38.769Z,7.07
2023-03-06T02:32:11.031Z,7.37
2023-03-06T02:34:52.546Z,6.97
2023-03-06T02:37:28.002Z,7.00
2023-03-06T02:40:13.391Z,7.60
2023-03-06T02:42:53.275Z,7.13
2023-03-06T02:45:45.979Z,7.53
2023-03-06T02:48:19.656Z,7.97
2023-03-06T02:50:51.619Z,7.77
2023-03-06T02:53:24.411Z,7.90
2023-03-06T02:55:56.459Z,8.80
2023-03-06T02:58:28.495Z,8.87
2023-03-06T03:01:00.394Z,9.53
2023-03-06T03:03:33.236Z,10.17
2023-03-06T03:06:07.361Z,10.23
2023-03-06T03:08:39.309Z,9.97
2023-03-06T03:11:12.256Z,10.17
2023-03-06T03:13:44.225Z,10.43
2023-03-06T03:16:16.511Z,10.67
2023-03-06T03:18:50.265Z,10.90
2023-03-06T03:21:22.398Z,10.47
2023-03-06T03:23:54.356Z,11.13
2023-03-06T03:26:26.290Z,11.17
2023-03-06T03:28:58.222Z,11.47
2023-03-06T03:31:30.132Z,11.80
2023-03-06T03:34:02.783Z,11.13
2023-03-06T03:36:34.855Z,11.83
2023-03-06T03:39:07.056Z,10.87
2023-03-06T03:41:38.999Z,11.63
2023-03-06T03:44:11.156Z,11.83
2023-03-06T03:46:43.724Z,12.17
2023-03-06T03:49:16.079Z,12.03
2023-03-06T03:51:48.069Z,12.50
2023-03-06T03:54:20.028Z,11.53
2023-03-06T03:56:52.118Z,12.87
2023-03-06T03:59:24.421Z,12.20
2023-03-06T04:01:56.639Z,12.93
2023-03-06T04:04:28.625Z,13.60
2023-03-06T04:07:00.805Z,12.73
2023-03-06T04:09:33.105Z,14.43
2023-03-06T04:12:06.661Z,14.20
2023-03-06T04:14:38.579Z,14.30
2023-03-06T04:17:10.498Z,14.37
2023-03-06T04:19:42.458Z,15.30
2023-03-06T04:22:14.436Z,15.13
2023-03-06T04:24:49.448Z,15.10
2023-03-06T04:27:21.481Z,16.30
2023-03-06T04:29:56.273Z,16.90
2023-03-06T04:32:28.336Z,16.40
2023-03-06T04:35:00.308Z,17.27
2023-03-06T04:37:32.586Z,16.47
2023-03-06T04:40:05.474Z,17.10
2023-03-06T04:42:37.518Z,17.90
2023-03-06T04:45:09.995Z,17.40
2023-03-06T04:47:42.615Z,17.40
2023-03-06T04:50:15.144Z,18.37
2023-03-06T04:52:47.190Z,18.63
2023-03-06T04:55:20.330Z,18.63
2023-03-06T04:57:52.301Z,18.47
2023-03-06T05:00:31.656Z,18.03
2023-03-06T05:03:03.772Z,17.87
2023-03-06T05:05:35.714Z,18.40
2023-03-06T05:08:11.057Z,19.53
2023-03-06T05:10:43.802Z,18.13
2023-03-06T05:13:15.732Z,18.70
2023-03-06T05:15:47.723Z,18.73
2023-03-06T05:18:20.319Z,17.90
2023-03-06T05:20:52.440Z,18.90
2023-03-06T05:23:24.387Z,18.87
2023-03-06T05:25:57.281Z,19.57
2023-03-06T05:28:29.193Z,19.80
2023-03-06T05:31:03.360Z,20.13
2023-03-06T05:33:36.530Z,19.67
2023-03-06T05:36:10.422Z,19.37
2023-03-06T05:38:42.526Z,19.43
2023-03-06T05:41:15.324Z,18.70
2023-03-06T05:43:47.309Z,19.67
2023-03-06T05:46:19.242Z,19.13
2023-03-06T05:48:54.030Z,20.10
2023-03-06T05:51:26.748Z,19.67
2023-03-06T05:53:58.662Z,20.40
2023-03-06T05:56:30.585Z,20.63
2023-03-06T05:59:02.562Z,19.73
2023-03-06T06:01:34.518Z,20.83
2023-03-06T06:04:06.430Z,21.17
2023-03-06T06:06:38.379Z,20.37
2023-03-06T06:09:12.827Z,20.87
2023-03-06T06:11:45.715Z,21.30
2023-03-06T06:14:17.816Z,20.37
2023-03-06T06:16:50.852Z,21.10
2023-03-06T06:19:23.504Z,21.13
2023-03-06T06:21:55.785Z,21.37
2023-03-06T06:24:27.742Z,30.70
2023-03-06T06:27:03.389Z,24.23
2023-03-06T06:29:35.916Z,21.33
2023-03-06T06:32:08.116Z,21.40
2023-03-06T06:34:40.098Z,21.83
2023-03-06T06:37:12.042Z,20.83
2023-03-06T06:39:43.950Z,21.20
2023-03-06T06:42:38.985Z,20.50
2023-03-06T06:45:11.226Z,22.53
2023-03-06T06:47:43.573Z,21.20
2023-03-06T06:50:15.857Z,21.17
2023-03-06T06:52:47.840Z,22.93
2023-03-06T06:55:19.799Z,22.27
2023-03-06T06:57:51.795Z,21.60
2023-03-06T07:00:24.354Z,22.50
2023-03-06T07:02:56.292Z,22.10
2023-03-06T07:05:28.243Z,21.67
2023-03-06T07:08:00.295Z,22.77
2023-03-06T07:10:33.161Z,23.30
2023-03-06T07:13:05.836Z,23.57
2023-03-06T07:15:37.783Z,24.67
2023-03-06T07:18:09.811Z,22.97
2023-03-06T07:20:42.101Z,22.93
2023-03-06T07:23:14.052Z,23.73
2023-03-06T07:25:46.185Z,24.27
2023-03-06T07:28:19.562Z,25.37
2023-03-06T07:30:51.927Z,24.47
2023-03-06T07:33:23.935Z,25.13
2023-03-06T07:35:55.881Z,24.90
2023-03-06T07:38:27.933Z,24.87
2023-03-06T07:40:59.960Z,24.70
2023-03-06T07:43:32.174Z,24.97
2023-03-06T07:46:04.590Z,26.00
2023-03-06T07:48:40.284Z,25.77
2023-03-06T07:51:19.792Z,26.00
2023-03-06T07:53:51.782Z,24.27
2023-03-06T07:56:23.756Z,25.80
2023-03-06T07:58:57.052Z,26.10
2023-03-06T08:01:29.289Z,25.30
2023-03-06T08:04:02.009Z,26.70
2023-03-06T08:06:34.152Z,25.90
2023-03-06T08:09:06.271Z,25.90
2023-03-06T08:11:38.207Z,24.37
2023-03-06T08:14:10.168Z,25.00
2023-03-06T08:16:42.231Z,24.40
2023-03-06T08:19:14.260Z,23.57
2023-03-06T08:21:46.263Z,24.27
2023-03-06T08:24:18.694Z,23.93
2023-03-06T08:26:50.898Z,22.83
2023-03-06T08:29:23.261Z,23.27
2023-03-06T08:31:55.206Z,22.30
2023-03-06T08:34:27.534Z,22.97
2023-03-06T08:36:59.463Z,24.07
2023-03-06T08:39:31.522Z,22.47
2023-03-06T08:42:03.529Z,22.30
2023-03-06T08:44:35.585Z,22.67
2023-03-06T08:47:07.614Z,21.73
2023-03-06T08:49:40.007Z,21.83
2023-03-06T08:52:12.012Z,22.20
2023-03-06T08:54:43.988Z,21.13
2023-03-06T08:57:16.008Z,22.60
2023-03-06T08:59:47.961Z,21.20
2023-03-06T09:02:20.019Z,21.80
2023-03-06T09:04:52.042Z,20.87
2023-03-06T09:07:24.015Z,21.03
2023-03-06T09:09:57.852Z,20.53
2023-03-06T09:12:34.647Z,21.07
2023-03-06T09:15:11.262Z,20.63
2023-03-06T09:17:43.270Z,21.20
2023-03-06T09:20:15.963Z,19.90
2023-03-06T09:22:47.926Z,18.93
2023-03-06T09:25:22.472Z,18.70
2023-03-06T09:28:10.169Z,18.77
2023-03-06T09:30:42.715Z,18.87
2023-03-06T09:33:15.445Z,18.63
2023-03-06T09:35:56.759Z,19.20
2023-03-06T09:38:29.172Z,18.53
2023-03-06T09:41:19.648Z,17.70
2023-03-06T09:44:15.155Z,17.80
2023-03-06T09:47:22.600Z,17.00
2023-03-06T09:50:18.878Z,16.97
2023-03-06T09:53:10.600Z,16.73
2023-03-06T09:55:48.590Z,15.87
2023-03-06T09:58:27.043Z,15.83
2023-03-06T10:01:24.683Z,16.17
2023-03-06T10:04:18.154Z,15.57
2023-03-06T10:06:58.284Z,16.43
2023-03-06T10:10:01.841Z,16.13
2023-03-06T10:12:43.011Z,15.57
2023-03-06T10:15:31.336Z,15.23
2023-03-06T10:18:05.146Z,14.27
2023-03-06T10:20:51.579Z,14.00
2023-03-06T10:23:49.580Z,13.47
2023-03-06T10:26:32.622Z,12.17
2023-03-06T10:29:31.052Z,12.63
2023-03-06T10:32:19.002Z,14.33
2023-03-06T10:34:51.803Z,15.67
2023-03-06T10:37:23.830Z,12.93
2023-03-06T10:40:08.414Z,13.10
2023-03-06T10:42:40.487Z,12.30
2023-03-06T10:45:17.579Z,11.60
2023-03-06T10:47:49.554Z,12.20
2023-03-06T10:50:27.813Z,12.77
2023-03-06T10:53:26.423Z,12.57
2023-03-06T10:56:00.582Z,12.40
2023-03-06T10:58:33.107Z,13.10
2023-03-06T11:01:22.105Z,14.73
2023-03-06T11:03:56.541Z,15.77
2023-03-06T11:06:35.222Z,14.13
2023-03-06T11:09:18.803Z,13.87
2023-03-06T11:11:52.556Z,12.57
2023-03-06T11:14:27.140Z,11.87
2023-03-06T11:16:59.560Z,12.10
2023-03-06T11:19:32.953Z,12.23
2023-03-06T11:22:19.245Z,13.80
2023-03-06T11:24:55.032Z,13.30
2023-03-06T11:27:34.808Z,12.77
2023-03-06T11:30:26.558Z,13.50
2023-03-06T11:33:15.066Z,12.23
2023-03-06T11:36:04.389Z,12.97
2023-03-06T11:38:49.225Z,12.27
2023-03-06T11:42:09.185Z,11.33
2023-03-06T11:45:10.095Z,11.00
2023-03-06T11:47:46.396Z,10.97
2023-03-06T11:50:39.086Z,12.03
2023-03-06T11:53:15.535Z,12.07
2023-03-06T11:56:19.787Z,12.83
2023-03-06T11:59:19.688Z,10.97
2023-03-06T12:02:21.753Z,10.87
2023-03-06T12:05:26.191Z,8.07
2023-03-06T12:08:22.776Z,7.37
2023-03-06T12:11:32.833Z,7.57
2023-03-06T12:15:02.758Z,8.40
2023-03-06T12:18:19.484Z,8.93
2023-03-06T12:21:03.384Z,9.83
2023-03-06T12:23:53.680Z,8.50
2023-03-06T12:27:06.210Z,8.50
2023-03-06T12:30:11.827Z,9.00
2023-03-06T12:32:59.121Z,8.10
2023-03-06T12:35:56.953Z,9.03
2023-03-06T12:38:43.813Z,9.53
2023-03-06T12:41:42.678Z,8.50
2023-03-06T12:44:48.425Z,9.00
2023-03-06T12:47:27.988Z,9.33
2023-03-06T12:50:15.373Z,9.70
2023-03-06T12:52:49.152Z,10.60
2023-03-06T12:55:25.523Z,11.20
2023-03-06T12:58:47.379Z,10.33
2023-03-06T13:02:00.515Z,10.97
2023-03-06T13:05:22.316Z,11.57
2023-03-06T13:08:35.206Z,8.50
2023-03-06T13:11:23.257Z,7.30
2023-03-06T13:13:56.778Z,7.20
2023-03-06T13:16:34.713Z,6.43
2023-03-06T13:19:27.176Z,6.57
2023-03-06T13:22:01.684Z,6.60
2023-03-06T13:24:37.557Z,6.53
2023-03-06T13:27:12.748Z,6.40
2023-03-06T13:29:53.682Z,7.63
2023-03-06T13:32:34.763Z,6.60
2023-03-06T13:35:32.615Z,10.67
2023-03-06T13:38:04.815Z,6.37
2023-03-06T13:40:36.898Z,7.67
2023-03-06T13:43:08.832Z,7.50
2023-03-06T13:45:43.762Z,8.73
2023-03-06T13:48:44.586Z,7.07
2023-03-06T13:51:31.294Z,7.90
2023-03-06T13:54:27.527Z,7.77
2023-03-06T13:57:29.995Z,9.63
2023-03-06T14:00:40.247Z,8.40
2023-03-06T14:03:51.128Z,15.80
2023-03-06T14:06:34.964Z,10.00
2023-03-06T14:09:43.647Z,12.03
2023-03-06T14:12:36.146Z,14.17
2023-03-06T14:15:31.842Z,14.67
2023-03-06T14:18:20.968Z,12.07
2023-03-06T14:21:01.964Z,11.90
2023-03-06T14:23:42.478Z,12.53
2023-03-06T14:26:24.444Z,11.50
2023-03-06T14:28:59.496Z,12.33
2023-03-06T14:31:42.585Z,12.43
2023-03-06T14:34:41.047Z,13.50
2023-03-06T14:37:25.182Z,14.47
2023-03-06T14:39:58.731Z,14.43
2023-03-06T14:42:30.799Z,15.60
2023-03-06T14:45:17.940Z,15.93
2023-03-06T14:47:53.073Z,15.20
2023-03-06T14:50:35.342Z,15.57
2023-03-06T14:53:21.292Z,16.17
2023-03-06T14:56:36.091Z,16.73
2023-03-06T14:59:16.583Z,16.50
2023-03-06T15:01:52.411Z,17.73
2023-03-06T15:04:38.632Z,18.40
2023-03-06T15:07:30.531Z,18.90
2023-03-06T15:10:02.726Z,18.67
2023-03-06T15:12:37.070Z,19.10
2023-03-06T15:15:10.429Z,18.97
2023-03-06T15:17:45.866Z,18.67
2023-03-06T15:20:36.789Z,18.93
2023-03-06T15:23:45.436Z,18.23
2023-03-06T15:26:34.583Z,17.70
2023-03-06T15:29:10.209Z,18.27
2023-03-06T15:31:46.755Z,18.13
2023-03-06T15:34:25.023Z,20.10
2023-03-06T15:36:58.218Z,18.90
2023-03-06T15:39:38.860Z,19.37
2023-03-06T15:42:28.019Z,17.83
2023-03-06T15:45:12.904Z,18.50
2023-03-06T15:47:46.393Z,17.97
2023-03-06T15:50:21.228Z,18.63
2023-03-06T15:52:53.596Z,18.90
2023-03-06T15:55:26.293Z,18.60
2023-03-06T15:58:02.226Z,18.70
2023-03-06T16:00:38.439Z,18.17
2023-03-06T16:03:11.870Z,19.20
2023-03-06T16:05:44.239Z,19.57
2023-03-06T16:08:16.269Z,18.73
2023-03-06T16:10:49.818Z,20.63
2023-03-06T16:13:28.847Z,18.87
2023-03-06T16:16:00.814Z,20.03
2023-03-06T16:18:32.752Z,19.60
2023-03-06T16:21:06.474Z,19.30
2023-03-06T16:23:39.218Z,19.00
2023-03-06T16:26:27.870Z,18.50
2023-03-06T16:29:00.156Z,18.43
2023-03-06T16:31:32.076Z,16.87
2023-03-06T16:34:04.013Z,16.23
2023-03-06T16:36:36.519Z,16.00
2023-03-06T16:39:15.800Z,16.40
2023-03-06T16:41:49.462Z,15.93
2023-03-06T16:44:21.673Z,15.03
2023-03-06T16:46:53.572Z,15.20
2023-03-06T16:49:26.559Z,15.07
2023-03-06T16:51:58.576Z,15.97
2023-03-06T16:54:30.658Z,16.17
2023-03-06T16:57:04.016Z,17.23
2023-03-06T16:59:36.021Z,16.83
2023-03-06T17:02:10.175Z,17.83
2023-03-06T17:04:42.158Z,17.83
2023-03-06T17:07:14.106Z,17.27
2023-03-06T17:09:46.086Z,19.13
2023-03-06T17:12:18.102Z,18.87
2023-03-06T17:14:50.124Z,19.23
2023-03-06T17:17:22.277Z,19.33
2023-03-06T17:19:54.306Z,19.43
2023-03-06T17:22:27.359Z,19.60
2023-03-06T17:25:02.490Z,23.30
2023-03-06T17:27:35.884Z,20.93
2023-03-06T17:30:09.923Z,20.83
2023-03-06T17:32:41.998Z,19.80
2023-03-06T17:35:14.195Z,21.03
2023-03-06T17:37:46.136Z,20.23
2023-03-06T17:40:18.362Z,20.13
2023-03-06T17:42:51.214Z,20.63
2023-03-06T17:45:23.244Z,19.27
2023-03-06T17:47:55.917Z,19.70
2023-03-06T17:50:28.064Z,19.50
2023-03-06T17:52:59.950Z,18.77
2023-03-06T17:55:31.918Z,19.20
2023-03-06T17:58:06.515Z,19.67
2023-03-06T18:00:39.926Z,21.95
2023-03-06T18:03:12.725Z,20.27
2023-03-06T18:05:45.125Z,18.47
2023-03-06T18:08:17.113Z,19.00
2023-03-06T18:10:49.194Z,18.57
2023-03-06T18:13:22.042Z,18.37
2023-03-06T18:15:54.032Z,17.93
2023-03-06T18:18:26.791Z,19.27
2023-03-06T18:21:04.239Z,17.83
2023-03-06T18:23:37.862Z,16.97
2023-03-06T18:26:27.196Z,17.87
2023-03-06T18:29:03.670Z,17.43
2023-03-06T18:31:39.316Z,17.23
2023-03-06T18:34:14.415Z,16.67
2023-03-06T18:36:51.626Z,16.27
2023-03-06T18:39:23.772Z,16.60
2023-03-06T18:41:56.507Z,16.43
2023-03-06T18:44:28.529Z,15.80
2023-03-06T18:47:00.503Z,15.77
2023-03-06T18:49:32.436Z,15.17
2023-03-06T18:52:04.708Z,15.40
2023-03-06T18:54:36.638Z,15.10
2023-03-06T18:57:11.254Z,15.20
2023-03-06T18:59:43.423Z,14.27
2023-03-06T19:02:15.355Z,14.73
2023-03-06T19:04:47.493Z,14.47
2023-03-06T19:07:19.996Z,13.77
2023-03-06T19:09:51.981Z,14.97
2023-03-06T19:12:24.007Z,14.90
2023-03-06T19:14:55.973Z,14.80
2023-03-06T19:17:27.925Z,15.07
2023-03-06T19:19:59.986Z,14.27
2023-03-06T19:22:35.370Z,15.77
2023-03-06T19:25:08.136Z,15.50
2023-03-06T19:27:40.201Z,14.50
2023-03-06T19:30:13.943Z,15.27
2023-03-06T19:32:46.228Z,15.33
2023-03-06T19:35:19.567Z,14.43
2023-03-06T19:37:52.100Z,15.07
2023-03-06T19:40:24.044Z,15.17
2023-03-06T19:42:56.230Z,14.47
2023-03-06T19:45:28.185Z,15.97
2023-03-06T19:48:00.945Z,15.30
2023-03-06T19:50:34.841Z,15.70
2023-03-06T19:53:07.900Z,15.50
2023-03-06T19:55:40.107Z,16.50
2023-03-06T19:58:12.330Z,16.07
2023-03-06T20:00:44.400Z,15.80
2023-03-06T20:03:16.342Z,15.10
2023-03-06T20:05:48.550Z,16.53
2023-03-06T20:08:20.515Z,15.90
2023-03-06T20:10:52.509Z,15.70
2023-03-06T20:13:24.656Z,15.63
2023-03-06T20:15:57.948Z,16.17
2023-03-06T20:18:30.029Z,16.07
2023-03-06T20:21:04.926Z,17.27
2023-03-06T20:23:37.098Z,17.13
2023-03-06T20:26:12.576Z,16.83
2023-03-06T20:28:44.543Z,17.00
2023-03-06T20:31:21.061Z,16.83
2023-03-06T20:33:56.291Z,17.10
2023-03-06T20:36:32.814Z,16.70
2023-03-06T20:39:13.585Z,17.20
2023-03-06T20:41:46.782Z,17.40
2023-03-06T20:44:20.162Z,17.70
2023-03-06T20:46:52.822Z,17.83
2023-03-06T20:49:27.174Z,17.33
2023-03-06T20:51:59.290Z,17.30
2023-03-06T20:54:31.283Z,17.53
2023-03-06T20:57:03.405Z,17.20
2023-03-06T20:59:35.379Z,16.77
2023-03-06T21:02:10.584Z,16.27
2023-03-06T21:04:42.630Z,17.77
2023-03-06T21:07:14.630Z,18.30
2023-03-06T21:09:47.717Z,18.07
2023-03-06T21:12:19.683Z,17.43
2023-03-06T21:14:51.686Z,17.97
2023-03-06T21:17:24.389Z,16.90
2023-03-06T21:19:56.404Z,18.20
2023-03-06T21:22:30.253Z,17.20
2023-03-06T21:25:02.316Z,16.80
2023-03-06T21:27:34.239Z,17.83
2023-03-06T21:30:07.825Z,17.67
2023-03-06T21:32:40.460Z,16.93
2023-03-06T21:35:12.606Z,17.97
2023-03-06T21:37:45.425Z,17.17
2023-03-06T21:40:17.452Z,16.97
2023-03-06T21:42:49.613Z,16.63
2023-03-06T21:45:21.576Z,17.50
2023-03-06T21:47:53.464Z,17.10
2023-03-06T21:50:27.656Z,16.73
2023-03-06T21:52:59.728Z,16.37
2023-03-06T21:55:31.787Z,15.60
2023-03-06T21:58:03.852Z,14.67
2023-03-06T22:00:36.635Z,15.60
2023-03-06T22:03:09.636Z,14.23
2023-03-06T22:05:41.973Z,14.00
2023-03-06T22:08:14.455Z,14.07
2023-03-06T22:10:48.450Z,13.60
2023-03-06T22:13:20.804Z,14.37
2023-03-06T22:15:55.213Z,13.23
2023-03-06T22:18:28.053Z,11.83
2023-03-06T22:21:00.435Z,11.07
2023-03-06T22:23:32.362Z,11.30
2023-03-06T22:26:12.696Z,10.23
2023-03-06T22:28:44.997Z,10.03
2023-03-06T22:31:23.857Z,10.57
2023-03-06T22:33:59.044Z,9.50
2023-03-06T22:36:32.058Z,9.60
2023-03-06T22:39:04.681Z,9.77
2023-03-06T22:41:36.665Z,9.20
2023-03-06T22:44:15.640Z,10.63
2023-03-06T22:46:47.800Z,9.93
2023-03-06T22:49:19.852Z,10.30
2023-03-06T22:51:51.782Z,10.60
2023-03-06T22:54:23.757Z,10.33
2023-03-06T22:56:55.698Z,9.77
2023-03-06T22:59:27.747Z,9.67
2023-03-06T23:01:59.732Z,9.47
2023-03-06T23:04:31.753Z,9.67
2023-03-06T23:07:04.624Z,9.57
2023-03-06T23:09:36.551Z,8.73
2023-03-06T23:12:09.227Z,9.33
2023-03-06T23:14:41.379Z,8.43
2023-03-06T23:17:13.327Z,9.47
2023-03-06T23:19:45.381Z,9.17
2023-03-06T23:22:17.519Z,9.13
2023-03-06T23:24:49.556Z,8.43
2023-03-06T23:27:21.648Z,8.80
2023-03-06T23:29:56.877Z,9.63
2023-03-06T23:32:28.896Z,9.67
2023-03-06T23:35:01.534Z,9.63
2023-03-06T23:37:33.584Z,9.93
2023-03-06T23:40:07.856Z,8.77
2023-03-06T23:42:40.358Z,7.47
2023-03-06T23:45:12.315Z,7.43
2023-03-06T23:47:44.324Z,6.30
2023-03-06T23:50:16.853Z,6.37
2023-03-06T23:52:51.803Z,5.80
2023-03-06T23:55:23.766Z,5.80
2023-03-06T23:57:55.826Z,5.30
